sensor_id;sensor_type;location;lat;lon;timestamp;temperature;humidity
46608;DHT22;32330;51.936;7.184;2022-12-07T03:15:38;3.80;99.90
46608;DHT22;32330;51.936;7.184;2022-12-07T03:18:08;3.90;99.90
46608;DHT22;32330;51.936;7.184;2022-12-07T03:20:38;3.80;99.90
46608;DHT22;32330;51.936;7.184;2022-12-07T03:23:07;3.80;99.90
46608;DHT22;32330;51.936;7.184;2022-12-07T03:25:36;3.80;99.90
46608;DHT22;32330;51.936;7.184;2022-12-07T03:28:07;3.80;99.90
46608;DHT22;32330;51.936;7.184;2022-12-07T03:30:39;3.80;99.90
46608;DHT22;32330;51.936;7.184;2022-12-07T03:33:11;3.80;99.90
46608;DHT22;32330;51.936;7.184;2022-12-07T03:35:41;3.80;99.90
46608;DHT22;32330;51.936;7.184;2022-12-07T03:38:15;3.80;99.90
46608;DHT22;32330;51.936;7.184;2022-12-07T03:40:47;3.80;99.90
46608;DHT22;32330;51.936;7.184;2022-12-07T03:43:17;3.80;99.90
46608;DHT22;32330;51.936;7.184;2022-12-07T03:45:55;3.80;99.90
46608;DHT22;32330;51.936;7.184;2022-12-07T03:48:30;3.80;99.90
46608;DHT22;32330;51.936;7.184;2022-12-07T03:51:01;3.80;99.90
46608;DHT22;32330;51.936;7.184;2022-12-07T03:53:36;3.80;99.90
46608;DHT22;32330;51.936;7.184;2022-12-07T03:56:04;3.80;99.90
46608;DHT22;32330;51.936;7.184;2022-12-07T03:58:33;3.80;99.90
46608;DHT22;32330;51.936;7.184;2022-12-07T04:01:02;3.80;99.90
46608;DHT22;32330;51.936;7.184;2022-12-07T04:03:29;3.80;99.90
46608;DHT22;32330;51.936;7.184;2022-12-07T04:05:56;3.80;99.90
46608;DHT22;32330;51.936;7.184;2022-12-07T04:08:24;3.80;99.90
46608;DHT22;32330;51.936;7.184;2022-12-07T04:10:50;3.80;99.90
46608;DHT22;32330;51.936;7.184;2022-12-07T04:13:17;3.80;99.90
46608;DHT22;32330;51.936;7.184;2022-12-07T04:15:44;3.80;99.90
46608;DHT22;32330;51.936;7.184;2022-12-07T04:18:12;3.70;99.90
46608;DHT22;32330;51.936;7.184;2022-12-07T04:20:39;3.70;99.90
46608;DHT22;32330;51.936;7.184;2022-12-07T04:23:06;3.70;99.90
46608;DHT22;32330;51.936;7.184;2022-12-07T04:25:33;3.70;99.90
46608;DHT22;32330;51.936;7.184;2022-12-07T04:28:00;3.70;99.90
46608;DHT22;32330;51.936;7.184;2022-12-07T04:30:27;3.70;99.90
46608;DHT22;32330;51.936;7.184;2022-12-07T04:32:54;3.70;99.90
46608;DHT22;32330;51.936;7.184;2022-12-07T04:35:22;3.70;99.90
46608;DHT22;32330;51.936;7.184;2022-12-07T04:37:49;3.70;99.90
46608;DHT22;32330;51.936;7.184;2022-12-07T04:40:16;3.70;99.90
46608;DHT22;32330;51.936;7.184;2022-12-07T04:42:43;3.70;99.90
46608;DHT22;32330;51.936;7.184;2022-12-07T04:45:28;3.70;99.90
46608;DHT22;32330;51.936;7.184;2022-12-07T04:47:55;3.60;99.90
46608;DHT22;32330;51.936;7.184;2022-12-07T04:50:24;3.60;99.90
46608;DHT22;32330;51.936;7.184;2022-12-07T04:52:51;3.60;99.90
46608;DHT22;32330;51.936;7.184;2022-12-07T04:55:18;3.60;99.90
46608;DHT22;32330;51.936;7.184;2022-12-07T04:57:45;3.60;99.90
46608;DHT22;32330;51.936;7.184;2022-12-07T05:00:12;3.50;99.90
46608;DHT22;32330;51.936;7.184;2022-12-07T05:02:39;3.50;99.90
46608;DHT22;32330;51.936;7.184;2022-12-07T05:05:07;3.60;99.90
46608;DHT22;32330;51.936;7.184;2022-12-07T05:07:35;3.60;99.90
46608;DHT22;32330;51.936;7.184;2022-12-07T05:10:02;3.60;99.90
46608;DHT22;32330;51.936;7.184;2022-12-07T05:12:29;3.60;99.90
46608;DHT22;32330;51.936;7.184;2022-12-07T05:14:56;3.60;99.90
46608;DHT22;32330;51.936;7.184;2022-12-07T05:17:23;3.50;99.90
46608;DHT22;32330;51.936;7.184;2022-12-07T05:19:50;3.50;99.90
46608;DHT22;32330;51.936;7.184;2022-12-07T05:22:17;3.50;99.90
46608;DHT22;32330;51.936;7.184;2022-12-07T05:24:45;3.60;99.90
46608;DHT22;32330;51.936;7.184;2022-12-07T05:27:12;3.50;99.90
46608;DHT22;32330;51.936;7.184;2022-12-07T05:29:39;3.60;99.90
46608;DHT22;32330;51.936;7.184;2022-12-07T05:32:06;3.60;99.90
46608;DHT22;32330;51.936;7.184;2022-12-07T05:34:33;3.60;99.90
46608;DHT22;32330;51.936;7.184;2022-12-07T05:37:00;3.50;99.90
46608;DHT22;32330;51.936;7.184;2022-12-07T05:39:27;3.50;99.90
46608;DHT22;32330;51.936;7.184;2022-12-07T05:41:55;3.50;99.90
46608;DHT22;32330;51.936;7.184;2022-12-07T05:44:42;3.50;99.90
46608;DHT22;32330;51.936;7.184;2022-12-07T05:47:09;3.40;99.90
46608;DHT22;32330;51.936;7.184;2022-12-07T05:49:36;3.40;99.90
46608;DHT22;32330;51.936;7.184;2022-12-07T05:52:03;3.40;99.90
46608;DHT22;32330;51.936;7.184;2022-12-07T05:54:30;3.30;99.90
46608;DHT22;32330;51.936;7.184;2022-12-07T05:56:59;3.30;99.90
46608;DHT22;32330;51.936;7.184;2022-12-07T05:59:25;3.30;99.90
46608;DHT22;32330;51.936;7.184;2022-12-07T06:01:54;3.20;99.90
46608;DHT22;32330;51.936;7.184;2022-12-07T06:04:22;3.20;99.90
46608;DHT22;32330;51.936;7.184;2022-12-07T06:06:50;3.20;99.90
46608;DHT22;32330;51.936;7.184;2022-12-07T06:09:18;3.20;99.90
46608;DHT22;32330;51.936;7.184;2022-12-07T06:11:45;3.20;99.90
46608;DHT22;32330;51.936;7.184;2022-12-07T06:14:31;3.20;99.90
46608;DHT22;32330;51.936;7.184;2022-12-07T06:16:59;3.20;99.90
46608;DHT22;32330;51.936;7.184;2022-12-07T06:19:26;3.20;99.90
46608;DHT22;32330;51.936;7.184;2022-12-07T06:21:53;3.10;99.90
46608;DHT22;32330;51.936;7.184;2022-12-07T06:24:20;3.10;99.90
46608;DHT22;32330;51.936;7.184;2022-12-07T06:26:47;3.10;99.90
46608;DHT22;32330;51.936;7.184;2022-12-07T06:29:14;3.10;99.90
46608;DHT22;32330;51.936;7.184;2022-12-07T06:31:43;3.00;99.90
46608;DHT22;32330;51.936;7.184;2022-12-07T06:34:12;3.00;99.90
46608;DHT22;32330;51.936;7.184;2022-12-07T06:36:39;3.00;99.90
46608;DHT22;32330;51.936;7.184;2022-12-07T06:39:06;3.00;99.90
46608;DHT22;32330;51.936;7.184;2022-12-07T06:41:35;3.00;99.90
46608;DHT22;32330;51.936;7.184;2022-12-07T06:44:02;3.00;99.90
46608;DHT22;32330;51.936;7.184;2022-12-07T06:46:29;3.00;99.90
46608;DHT22;32330;51.936;7.184;2022-12-07T06:48:58;3.00;99.90
46608;DHT22;32330;51.936;7.184;2022-12-07T06:51:25;3.00;99.90
46608;DHT22;32330;51.936;7.184;2022-12-07T06:53:52;3.00;99.90
46608;DHT22;32330;51.936;7.184;2022-12-07T06:56:19;3.00;99.90
46608;DHT22;32330;51.936;7.184;2022-12-07T06:58:45;3.00;99.90
46608;DHT22;32330;51.936;7.184;2022-12-07T07:01:14;3.00;99.90
46608;DHT22;32330;51.936;7.184;2022-12-07T07:03:42;3.00;99.90
46608;DHT22;32330;51.936;7.184;2022-12-07T07:06:10;3.00;99.90
46608;DHT22;32330;51.936;7.184;2022-12-07T07:08:38;3.00;99.90
46608;DHT22;32330;51.936;7.184;2022-12-07T07:11:06;3.00;99.90
46608;DHT22;32330;51.936;7.184;2022-12-07T07:13:33;3.00;99.90
46608;DHT22;32330;51.936;7.184;2022-12-07T07:16:00;2.90;99.90
46608;DHT22;32330;51.936;7.184;2022-12-07T07:18:28;2.90;99.90
46608;DHT22;32330;51.936;7.184;2022-12-07T07:20:55;2.90;99.90
46608;DHT22;32330;51.936;7.184;2022-12-07T07:23:23;3.00;99.90
46608;DHT22;32330;51.936;7.184;2022-12-07T07:25:50;3.00;99.90
46608;DHT22;32330;51.936;7.184;2022-12-07T07:28:17;3.00;99.90
46608;DHT22;32330;51.936;7.184;2022-12-07T07:30:45;3.00;99.90
46608;DHT22;32330;51.936;7.184;2022-12-07T07:33:12;2.90;99.90
46608;DHT22;32330;51.936;7.184;2022-12-07T07:35:39;2.90;99.90
46608;DHT22;32330;51.936;7.184;2022-12-07T07:38:07;2.90;99.90
46608;DHT22;32330;51.936;7.184;2022-12-07T07:40:35;2.90;99.90
46608;DHT22;32330;51.936;7.184;2022-12-07T07:43:03;2.90;99.90
46608;DHT22;32330;51.936;7.184;2022-12-07T07:45:30;2.90;99.90
46608;DHT22;32330;51.936;7.184;2022-12-07T07:47:57;3.00;99.90
46608;DHT22;32330;51.936;7.184;2022-12-07T07:50:24;3.00;99.90
46608;DHT22;32330;51.936;7.184;2022-12-07T07:52:51;2.90;99.90
46608;DHT22;32330;51.936;7.184;2022-12-07T07:55:18;3.00;99.90
46608;DHT22;32330;51.936;7.184;2022-12-07T07:57:46;3.00;99.90
46608;DHT22;32330;51.936;7.184;2022-12-07T08:00:15;2.90;99.90
46608;DHT22;32330;51.936;7.184;2022-12-07T08:02:42;2.90;99.90
46608;DHT22;32330;51.936;7.184;2022-12-07T08:05:11;2.90;99.90
46608;DHT22;32330;51.936;7.184;2022-12-07T08:07:38;2.90;99.90
46608;DHT22;32330;51.936;7.184;2022-12-07T08:10:06;2.90;99.90
46608;DHT22;32330;51.936;7.184;2022-12-07T08:12:36;2.90;99.90
46608;DHT22;32330;51.936;7.184;2022-12-07T08:15:26;3.00;99.90
46608;DHT22;32330;51.936;7.184;2022-12-07T08:17:53;2.90;99.90
46608;DHT22;32330;51.936;7.184;2022-12-07T08:20:20;3.00;99.90
46608;DHT22;32330;51.936;7.184;2022-12-07T08:22:48;3.00;99.90
46608;DHT22;32330;51.936;7.184;2022-12-07T08:25:15;3.00;99.90
46608;DHT22;32330;51.936;7.184;2022-12-07T08:27:41;3.00;99.90
46608;DHT22;32330;51.936;7.184;2022-12-07T08:30:09;3.10;99.90
46608;DHT22;32330;51.936;7.184;2022-12-07T08:32:37;3.20;99.90
46608;DHT22;32330;51.936;7.184;2022-12-07T08:35:05;3.20;99.90
46608;DHT22;32330;51.936;7.184;2022-12-07T08:37:32;3.20;99.90
46608;DHT22;32330;51.936;7.184;2022-12-07T08:39:59;3.30;99.90
46608;DHT22;32330;51.936;7.184;2022-12-07T08:42:26;3.30;99.90
46608;DHT22;32330;51.936;7.184;2022-12-07T08:44:55;3.30;99.90
46608;DHT22;32330;51.936;7.184;2022-12-07T08:47:24;3.40;99.90
46608;DHT22;32330;51.936;7.184;2022-12-07T08:49:53;3.40;99.90
46608;DHT22;32330;51.936;7.184;2022-12-07T08:52:20;3.50;99.90
46608;DHT22;32330;51.936;7.184;2022-12-07T08:54:47;3.50;99.90
46608;DHT22;32330;51.936;7.184;2022-12-07T08:57:14;3.50;99.90
46608;DHT22;32330;51.936;7.184;2022-12-07T08:59:41;3.60;99.90
46608;DHT22;32330;51.936;7.184;2022-12-07T09:02:08;3.60;99.90
46608;DHT22;32330;51.936;7.184;2022-12-07T09:04:35;3.80;99.90
46608;DHT22;32330;51.936;7.184;2022-12-07T09:07:04;3.90;99.90
46608;DHT22;32330;51.936;7.184;2022-12-07T09:09:31;5.00;99.90
46608;DHT22;32330;51.936;7.184;2022-12-07T09:11:58;4.80;99.90
46608;DHT22;32330;51.936;7.184;2022-12-07T09:14:25;4.70;99.90
46608;DHT22;32330;51.936;7.184;2022-12-07T09:16:53;4.40;99.90
46608;DHT22;32330;51.936;7.184;2022-12-07T09:19:20;4.30;99.90
46608;DHT22;32330;51.936;7.184;2022-12-07T09:21:47;4.30;99.90
46608;DHT22;32330;51.936;7.184;2022-12-07T09:24:15;4.10;99.90
46608;DHT22;32330;51.936;7.184;2022-12-07T09:26:42;4.10;99.90
46608;DHT22;32330;51.936;7.184;2022-12-07T09:29:10;4.10;99.90
46608;DHT22;32330;51.936;7.184;2022-12-07T09:31:37;4.00;99.90
46608;DHT22;32330;51.936;7.184;2022-12-07T09:34:04;3.90;99.90
46608;DHT22;32330;51.936;7.184;2022-12-07T09:36:34;4.00;99.90
46608;DHT22;32330;51.936;7.184;2022-12-07T09:39:01;4.00;99.90
46608;DHT22;32330;51.936;7.184;2022-12-07T09:41:37;4.00;99.90
46608;DHT22;32330;51.936;7.184;2022-12-07T09:44:06;4.10;99.90
46608;DHT22;32330;51.936;7.184;2022-12-07T09:46:38;4.20;99.90
46608;DHT22;32330;51.936;7.184;2022-12-07T09:49:10;4.20;99.90
46608;DHT22;32330;51.936;7.184;2022-12-07T09:51:38;4.20;99.90
46608;DHT22;32330;51.936;7.184;2022-12-07T09:54:05;4.30;99.90
46608;DHT22;32330;51.936;7.184;2022-12-07T09:56:33;4.40;99.90
46608;DHT22;32330;51.936;7.184;2022-12-07T09:59:02;4.50;99.90
46608;DHT22;32330;51.936;7.184;2022-12-07T10:01:30;4.50;99.90
46608;DHT22;32330;51.936;7.184;2022-12-07T10:04:24;4.40;99.90
46608;DHT22;32330;51.936;7.184;2022-12-07T10:06:51;4.40;99.90
46608;DHT22;32330;51.936;7.184;2022-12-07T10:09:20;4.40;99.90
46608;DHT22;32330;51.936;7.184;2022-12-07T10:12:06;4.40;99.90
46608;DHT22;32330;51.936;7.184;2022-12-07T10:14:36;4.30;99.90
46608;DHT22;32330;51.936;7.184;2022-12-07T10:17:28;4.40;99.90
46608;DHT22;32330;51.936;7.184;2022-12-07T10:20:18;4.40;99.90
46608;DHT22;32330;51.936;7.184;2022-12-07T10:23:00;4.50;99.90
46608;DHT22;32330;51.936;7.184;2022-12-07T10:25:28;4.60;99.90
46608;DHT22;32330;51.936;7.184;2022-12-07T10:28:00;4.70;99.90
46608;DHT22;32330;51.936;7.184;2022-12-07T10:30:29;4.80;99.90
46608;DHT22;32330;51.936;7.184;2022-12-07T10:32:57;4.80;99.90
46608;DHT22;32330;51.936;7.184;2022-12-07T10:35:26;4.90;99.90
46608;DHT22;32330;51.936;7.184;2022-12-07T10:37:56;4.90;99.90
46608;DHT22;32330;51.936;7.184;2022-12-07T10:40:30;5.00;99.90
46608;DHT22;32330;51.936;7.184;2022-12-07T10:43:16;5.10;99.90
46608;DHT22;32330;51.936;7.184;2022-12-07T10:46:10;5.10;99.90
46608;DHT22;32330;51.936;7.184;2022-12-07T10:48:48;5.20;99.90
46608;DHT22;32330;51.936;7.184;2022-12-07T10:51:22;5.20;99.90
46608;DHT22;32330;51.936;7.184;2022-12-07T10:54:00;5.30;99.90
46608;DHT22;32330;51.936;7.184;2022-12-07T10:56:40;5.40;99.90
46608;DHT22;32330;51.936;7.184;2022-12-07T10:59:26;5.50;99.90
46608;DHT22;32330;51.936;7.184;2022-12-07T11:02:00;5.60;99.90
46608;DHT22;32330;51.936;7.184;2022-12-07T11:04:35;5.70;99.90
46608;DHT22;32330;51.936;7.184;2022-12-07T11:07:10;5.60;99.90
46608;DHT22;32330;51.936;7.184;2022-12-07T11:10:05;5.60;99.90
46608;DHT22;32330;51.936;7.184;2022-12-07T11:12:54;5.60;99.90
46608;DHT22;32330;51.936;7.184;2022-12-07T11:15:28;5.70;99.90
46608;DHT22;32330;51.936;7.184;2022-12-07T11:18:02;5.80;99.90
46608;DHT22;32330;51.936;7.184;2022-12-07T11:20:39;5.90;99.90
46608;DHT22;32330;51.936;7.184;2022-12-07T11:23:17;5.80;99.90
46608;DHT22;32330;51.936;7.184;2022-12-07T11:25:50;5.90;99.90
46608;DHT22;32330;51.936;7.184;2022-12-07T11:28:29;5.90;99.90
46608;DHT22;32330;51.936;7.184;2022-12-07T11:31:09;5.90;99.90
46608;DHT22;32330;51.936;7.184;2022-12-07T11:33:43;5.90;99.90
46608;DHT22;32330;51.936;7.184;2022-12-07T11:36:23;6.00;99.90
46608;DHT22;32330;51.936;7.184;2022-12-07T11:38:58;6.10;99.90
46608;DHT22;32330;51.936;7.184;2022-12-07T11:41:29;6.20;98.30
46608;DHT22;32330;51.936;7.184;2022-12-07T11:44:01;6.20;99.90
46608;DHT22;32330;51.936;7.184;2022-12-07T11:46:42;6.20;99.30
46608;DHT22;32330;51.936;7.184;2022-12-07T11:49:15;6.10;96.60
46608;DHT22;32330;51.936;7.184;2022-12-07T11:51:44;6.20;97.20
46608;DHT22;32330;51.936;7.184;2022-12-07T11:54:15;6.10;96.30
46608;DHT22;32330;51.936;7.184;2022-12-07T11:56:46;6.20;96.50
46608;DHT22;32330;51.936;7.184;2022-12-07T11:59:19;6.10;95.20
46608;DHT22;32330;51.936;7.184;2022-12-07T12:01:53;6.10;95.70
46608;DHT22;32330;51.936;7.184;2022-12-07T12:04:36;6.10;95.80
46608;DHT22;32330;51.936;7.184;2022-12-07T12:07:06;6.10;97.80
46608;DHT22;32330;51.936;7.184;2022-12-07T12:09:47;6.00;96.60
46608;DHT22;32330;51.936;7.184;2022-12-07T12:15:25;6.10;97.40
46608;DHT22;32330;51.936;7.184;2022-12-07T12:18:31;6.20;97.60
46608;DHT22;32330;51.936;7.184;2022-12-07T12:21:04;6.20;96.70
46608;DHT22;32330;51.936;7.184;2022-12-07T12:23:38;6.30;98.90
46608;DHT22;32330;51.936;7.184;2022-12-07T12:26:13;6.30;97.60
46608;DHT22;32330;51.936;7.184;2022-12-07T12:28:50;6.30;95.20
46608;DHT22;32330;51.936;7.184;2022-12-07T12:31:35;6.30;96.20
46608;DHT22;32330;51.936;7.184;2022-12-07T12:36:47;6.30;98.10
46608;DHT22;32330;51.936;7.184;2022-12-07T12:39:15;6.40;97.70
46608;DHT22;32330;51.936;7.184;2022-12-07T12:41:58;6.30;95.30
46608;DHT22;32330;51.936;7.184;2022-12-07T12:50:29;6.20;96.10
46608;DHT22;32330;51.936;7.184;2022-12-07T12:53:15;6.30;96.10
46608;DHT22;32330;51.936;7.184;2022-12-07T12:56:04;6.20;96.10
46608;DHT22;32330;51.936;7.184;2022-12-07T12:58:42;6.20;97.10
46608;DHT22;32330;51.936;7.184;2022-12-07T13:01:44;6.20;96.60
46608;DHT22;32330;51.936;7.184;2022-12-07T13:04:28;6.20;96.50
46608;DHT22;32330;51.936;7.184;2022-12-07T13:06:58;6.10;94.60
46608;DHT22;32330;51.936;7.184;2022-12-07T13:09:27;6.20;95.30
46608;DHT22;32330;51.936;7.184;2022-12-07T13:12:01;6.30;96.10
46608;DHT22;32330;51.936;7.184;2022-12-07T13:14:53;6.30;94.50
46608;DHT22;32330;51.936;7.184;2022-12-07T13:17:59;6.30;95.20
46608;DHT22;32330;51.936;7.184;2022-12-07T13:20:52;6.30;94.60
46608;DHT22;32330;51.936;7.184;2022-12-07T13:23:24;6.30;95.00
46608;DHT22;32330;51.936;7.184;2022-12-07T13:25:59;6.30;95.10
46608;DHT22;32330;51.936;7.184;2022-12-07T13:28:35;6.30;93.10
46608;DHT22;32330;51.936;7.184;2022-12-07T13:31:32;6.40;91.70
46608;DHT22;32330;51.936;7.184;2022-12-07T13:34:00;6.50;92.00
46608;DHT22;32330;51.936;7.184;2022-12-07T13:36:29;6.40;90.90
46608;DHT22;32330;51.936;7.184;2022-12-07T13:39:18;6.30;90.00
46608;DHT22;32330;51.936;7.184;2022-12-07T13:41:50;6.40;90.60
46608;DHT22;32330;51.936;7.184;2022-12-07T13:44:18;6.50;91.30
46608;DHT22;32330;51.936;7.184;2022-12-07T13:46:55;6.40;84.10
46608;DHT22;32330;51.936;7.184;2022-12-07T13:49:26;6.40;82.60
46608;DHT22;32330;51.936;7.184;2022-12-07T13:51:54;6.40;80.50
46608;DHT22;32330;51.936;7.184;2022-12-07T13:54:23;6.40;75.50
46608;DHT22;32330;51.936;7.184;2022-12-07T13:56:51;6.50;78.40
46608;DHT22;32330;51.936;7.184;2022-12-07T13:59:20;6.50;77.70
46608;DHT22;32330;51.936;7.184;2022-12-07T14:01:49;6.50;72.80
46608;DHT22;32330;51.936;7.184;2022-12-07T14:04:18;6.60;75.20
46608;DHT22;32330;51.936;7.184;2022-12-07T14:06:50;6.50;73.60
46608;DHT22;32330;51.936;7.184;2022-12-07T14:09:19;6.50;80.00
46608;DHT22;32330;51.936;7.184;2022-12-07T14:11:51;6.50;75.10
46608;DHT22;32330;51.936;7.184;2022-12-07T14:14:22;6.40;77.10
46608;DHT22;32330;51.936;7.184;2022-12-07T14:17:00;6.40;80.60
46608;DHT22;32330;51.936;7.184;2022-12-07T14:19:47;6.40;82.20
46608;DHT22;32330;51.936;7.184;2022-12-07T14:22:29;6.40;82.10
46608;DHT22;32330;51.936;7.184;2022-12-07T14:27:50;6.30;87.00
46608;DHT22;32330;51.936;7.184;2022-12-07T14:30:19;6.30;89.90
46608;DHT22;32330;51.936;7.184;2022-12-07T14:32:48;6.30;90.10
46608;DHT22;32330;51.936;7.184;2022-12-07T14:35:18;6.20;89.60
46608;DHT22;32330;51.936;7.184;2022-12-07T14:37:46;6.20;89.20
46608;DHT22;32330;51.936;7.184;2022-12-07T14:40:15;6.20;91.10
46608;DHT22;32330;51.936;7.184;2022-12-07T14:42:43;6.20;91.40
46608;DHT22;32330;51.936;7.184;2022-12-07T14:45:18;6.20;91.00
46608;DHT22;32330;51.936;7.184;2022-12-07T14:47:46;6.20;90.90
46608;DHT22;32330;51.936;7.184;2022-12-07T14:50:14;6.20;92.00
46608;DHT22;32330;51.936;7.184;2022-12-07T14:52:44;6.20;90.90
46608;DHT22;32330;51.936;7.184;2022-12-07T14:55:14;6.20;91.40
46608;DHT22;32330;51.936;7.184;2022-12-07T14:57:43;6.20;91.80
46608;DHT22;32330;51.936;7.184;2022-12-07T15:00:16;6.20;93.90
46608;DHT22;32330;51.936;7.184;2022-12-07T15:02:43;6.20;93.90
46608;DHT22;32330;51.936;7.184;2022-12-07T15:05:10;6.10;94.00
46608;DHT22;32330;51.936;7.184;2022-12-07T15:07:37;6.10;95.20
46608;DHT22;32330;51.936;7.184;2022-12-07T15:10:06;6.10;96.10
46608;DHT22;32330;51.936;7.184;2022-12-07T15:12:33;6.10;97.00
46608;DHT22;32330;51.936;7.184;2022-12-07T15:15:00;6.00;99.00
46608;DHT22;32330;51.936;7.184;2022-12-07T15:17:29;6.00;99.40
46608;DHT22;32330;51.936;7.184;2022-12-07T15:19:56;6.00;99.90
46608;DHT22;32330;51.936;7.184;2022-12-07T15:22:37;6.00;99.90
46608;DHT22;32330;51.936;7.184;2022-12-07T15:25:04;6.00;99.90
46608;DHT22;32330;51.936;7.184;2022-12-07T15:27:31;5.90;99.90
46608;DHT22;32330;51.936;7.184;2022-12-07T15:29:58;5.90;99.90
46608;DHT22;32330;51.936;7.184;2022-12-07T15:32:25;5.90;99.90
46608;DHT22;32330;51.936;7.184;2022-12-07T15:34:53;5.80;99.90
46608;DHT22;32330;51.936;7.184;2022-12-07T15:37:20;5.90;99.90
46608;DHT22;32330;51.936;7.184;2022-12-07T15:39:47;5.80;99.90
46608;DHT22;32330;51.936;7.184;2022-12-07T15:42:14;5.80;99.90
46608;DHT22;32330;51.936;7.184;2022-12-07T15:44:41;5.80;99.90
46608;DHT22;32330;51.936;7.184;2022-12-07T15:47:25;5.80;99.90
46608;DHT22;32330;51.936;7.184;2022-12-07T15:49:53;5.70;99.90
46608;DHT22;32330;51.936;7.184;2022-12-07T15:52:20;5.70;99.90
46608;DHT22;32330;51.936;7.184;2022-12-07T15:54:47;5.70;99.90
46608;DHT22;32330;51.936;7.184;2022-12-07T15:57:14;5.70;99.90
46608;DHT22;32330;51.936;7.184;2022-12-07T15:59:41;5.70;99.90
46608;DHT22;32330;51.936;7.184;2022-12-07T16:02:09;5.70;99.90
46608;DHT22;32330;51.936;7.184;2022-12-07T16:04:36;5.70;99.90
46608;DHT22;32330;51.936;7.184;2022-12-07T16:07:05;5.70;99.90
46608;DHT22;32330;51.936;7.184;2022-12-07T16:09:32;5.60;99.90
46608;DHT22;32330;51.936;7.184;2022-12-07T16:11:59;5.60;99.90
46608;DHT22;32330;51.936;7.184;2022-12-07T16:14:26;5.60;99.90
46608;DHT22;32330;51.936;7.184;2022-12-07T16:16:52;5.60;99.90
46608;DHT22;32330;51.936;7.184;2022-12-07T16:19:19;5.60;99.90
46608;DHT22;32330;51.936;7.184;2022-12-07T16:21:46;5.60;99.90
46608;DHT22;32330;51.936;7.184;2022-12-07T16:24:15;5.50;99.90
46608;DHT22;32330;51.936;7.184;2022-12-07T16:26:42;5.50;99.90
46608;DHT22;32330;51.936;7.184;2022-12-07T16:29:11;5.50;99.90
46608;DHT22;32330;51.936;7.184;2022-12-07T16:31:38;5.50;99.90
46608;DHT22;32330;51.936;7.184;2022-12-07T16:34:06;5.50;99.90
46608;DHT22;32330;51.936;7.184;2022-12-07T16:36:33;5.40;99.90
46608;DHT22;32330;51.936;7.184;2022-12-07T16:39:01;5.40;99.90
46608;DHT22;32330;51.936;7.184;2022-12-07T16:41:30;5.40;99.90
46608;DHT22;32330;51.936;7.184;2022-12-07T16:43:57;5.40;99.90
46608;DHT22;32330;51.936;7.184;2022-12-07T16:46:24;5.40;99.90
46608;DHT22;32330;51.936;7.184;2022-12-07T16:48:51;5.40;99.90
46608;DHT22;32330;51.936;7.184;2022-12-07T16:51:18;5.40;99.90
46608;DHT22;32330;51.936;7.184;2022-12-07T16:53:45;5.30;99.90
46608;DHT22;32330;51.936;7.184;2022-12-07T16:56:13;5.30;99.90
46608;DHT22;32330;51.936;7.184;2022-12-07T16:58:42;5.30;99.90
46608;DHT22;32330;51.936;7.184;2022-12-07T17:01:11;5.20;99.90
46608;DHT22;32330;51.936;7.184;2022-12-07T17:03:38;5.20;99.90
46608;DHT22;32330;51.936;7.184;2022-12-07T17:06:12;5.20;99.90
46608;DHT22;32330;51.936;7.184;2022-12-07T17:08:39;5.10;99.90
46608;DHT22;32330;51.936;7.184;2022-12-07T17:11:10;5.10;99.90
46608;DHT22;32330;51.936;7.184;2022-12-07T17:13:37;5.10;99.90
46608;DHT22;32330;51.936;7.184;2022-12-07T17:16:23;5.00;99.90
46608;DHT22;32330;51.936;7.184;2022-12-07T17:18:50;5.00;99.90
46608;DHT22;32330;51.936;7.184;2022-12-07T17:21:17;5.00;99.90
46608;DHT22;32330;51.936;7.184;2022-12-07T17:23:45;5.00;99.90
46608;DHT22;32330;51.936;7.184;2022-12-07T17:26:14;5.00;99.90
46608;DHT22;32330;51.936;7.184;2022-12-07T17:28:41;4.90;99.90
46608;DHT22;32330;51.936;7.184;2022-12-07T17:31:10;4.90;99.90
46608;DHT22;32330;51.936;7.184;2022-12-07T17:33:38;4.90;99.90
46608;DHT22;32330;51.936;7.184;2022-12-07T17:36:10;4.90;99.90
46608;DHT22;32330;51.936;7.184;2022-12-07T17:38:37;4.90;99.90
46608;DHT22;32330;51.936;7.184;2022-12-07T17:41:09;4.90;99.90
46608;DHT22;32330;51.936;7.184;2022-12-07T17:43:36;4.90;99.90
46608;DHT22;32330;51.936;7.184;2022-12-07T17:46:06;4.90;99.90
46608;DHT22;32330;51.936;7.184;2022-12-07T17:48:33;4.80;99.90
46608;DHT22;32330;51.936;7.184;2022-12-07T17:51:02;4.90;99.90
46608;DHT22;32330;51.936;7.184;2022-12-07T17:53:48;4.80;99.90
46608;DHT22;32330;51.936;7.184;2022-12-07T17:56:16;4.80;99.90
46608;DHT22;32330;51.936;7.184;2022-12-07T17:58:43;4.80;99.90
46608;DHT22;32330;51.936;7.184;2022-12-07T18:01:10;4.80;99.90
46608;DHT22;32330;51.936;7.184;2022-12-07T18:03:37;4.70;99.90
46608;DHT22;32330;51.936;7.184;2022-12-07T18:06:06;4.80;99.90
46608;DHT22;32330;51.936;7.184;2022-12-07T18:08:34;4.70;99.90
46608;DHT22;32330;51.936;7.184;2022-12-07T18:11:04;4.80;99.90
46608;DHT22;32330;51.936;7.184;2022-12-07T18:13:31;4.80;99.90
46608;DHT22;32330;51.936;7.184;2022-12-07T18:16:02;4.70;99.90
46608;DHT22;32330;51.936;7.184;2022-12-07T18:18:29;4.70;99.90
46608;DHT22;32330;51.936;7.184;2022-12-07T18:20:56;4.70;99.90
46608;DHT22;32330;51.936;7.184;2022-12-07T18:23:25;4.70;99.90
46608;DHT22;32330;51.936;7.184;2022-12-07T18:25:52;4.70;99.90
46608;DHT22;32330;51.936;7.184;2022-12-07T18:28:19;4.70;99.90
46608;DHT22;32330;51.936;7.184;2022-12-07T18:30:46;4.70;99.90
46608;DHT22;32330;51.936;7.184;2022-12-07T18:33:16;4.70;99.90
46608;DHT22;32330;51.936;7.184;2022-12-07T18:35:44;4.70;99.90
46608;DHT22;32330;51.936;7.184;2022-12-07T18:38:11;4.70;99.90
46608;DHT22;32330;51.936;7.184;2022-12-07T18:40:40;4.60;99.90
46608;DHT22;32330;51.936;7.184;2022-12-07T18:43:08;4.60;99.90
46608;DHT22;32330;51.936;7.184;2022-12-07T18:45:35;4.60;99.90
46608;DHT22;32330;51.936;7.184;2022-12-07T18:48:03;4.60;99.90
46608;DHT22;32330;51.936;7.184;2022-12-07T18:50:31;4.60;99.90
46608;DHT22;32330;51.936;7.184;2022-12-07T18:52:58;4.60;99.90
46608;DHT22;32330;51.936;7.184;2022-12-07T18:55:25;4.60;99.90
46608;DHT22;32330;51.936;7.184;2022-12-07T18:57:54;4.50;99.90
46608;DHT22;32330;51.936;7.184;2022-12-07T19:00:23;4.60;99.90
46608;DHT22;32330;51.936;7.184;2022-12-07T19:02:51;4.50;99.90
46608;DHT22;32330;51.936;7.184;2022-12-07T19:05:18;4.50;99.90
46608;DHT22;32330;51.936;7.184;2022-12-07T19:07:45;4.50;99.90
46608;DHT22;32330;51.936;7.184;2022-12-07T19:10:13;4.50;99.90
46608;DHT22;32330;51.936;7.184;2022-12-07T19:12:40;4.40;99.90
46608;DHT22;32330;51.936;7.184;2022-12-07T19:15:10;4.40;99.90
46608;DHT22;32330;51.936;7.184;2022-12-07T19:17:38;4.50;99.90
46608;DHT22;32330;51.936;7.184;2022-12-07T19:20:07;4.40;99.90
46608;DHT22;32330;51.936;7.184;2022-12-07T19:22:34;4.40;99.90
46608;DHT22;32330;51.936;7.184;2022-12-07T19:25:01;4.40;99.90
46608;DHT22;32330;51.936;7.184;2022-12-07T19:27:29;4.40;99.90
46608;DHT22;32330;51.936;7.184;2022-12-07T19:29:57;4.40;99.90
46608;DHT22;32330;51.936;7.184;2022-12-07T19:32:25;4.30;99.90
46608;DHT22;32330;51.936;7.184;2022-12-07T19:34:53;4.30;99.90